sensor_id;sensor_type;location;lat;lon;timestamp;P1;durP1;ratioP1;P2;durP2;ratioP2
56991;SDS011;42885;49.754;18.636;2023-12-20T00:01:27;11.30;;;6.87;;
56991;SDS011;42885;49.754;18.636;2023-12-20T00:03:58;9.40;;;5.80;;
56991;SDS011;42885;49.754;18.636;2023-12-20T00:06:29;11.80;;;6.08;;
56991;SDS011;42885;49.754;18.636;2023-12-20T00:09:01;9.45;;;6.30;;
56991;SDS011;42885;49.754;18.636;2023-12-20T00:11:32;9.20;;;6.37;;
56991;SDS011;42885;49.754;18.636;2023-12-20T00:14:03;12.10;;;6.95;;
56991;SDS011;42885;49.754;18.636;2023-12-20T00:16:34;9.30;;;6.22;;
56991;SDS011;42885;49.754;18.636;2023-12-20T00:19:05;10.63;;;6.35;;
56991;SDS011;42885;49.754;18.636;2023-12-20T00:21:37;9.08;;;6.03;;
56991;SDS011;42885;49.754;18.636;2023-12-20T00:24:08;9.20;;;6.20;;
56991;SDS011;42885;49.754;18.636;2023-12-20T00:26:40;8.05;;;5.97;;
56991;SDS011;42885;49.754;18.636;2023-12-20T00:29:11;9.33;;;6.75;;
56991;SDS011;42885;49.754;18.636;2023-12-20T00:31:43;10.05;;;6.35;;
56991;SDS011;42885;49.754;18.636;2023-12-20T00:34:14;8.03;;;5.78;;
56991;SDS011;42885;49.754;18.636;2023-12-20T00:36:45;8.23;;;5.78;;
56991;SDS011;42885;49.754;18.636;2023-12-20T00:39:16;9.15;;;6.35;;
56991;SDS011;42885;49.754;18.636;2023-12-20T00:41:47;9.73;;;6.40;;
56991;SDS011;42885;49.754;18.636;2023-12-20T00:44:18;8.23;;;6.50;;
56991;SDS011;42885;49.754;18.636;2023-12-20T00:46:49;10.03;;;5.90;;
56991;SDS011;42885;49.754;18.636;2023-12-20T00:49:21;9.90;;;6.10;;
56991;SDS011;42885;49.754;18.636;2023-12-20T00:51:52;8.10;;;5.85;;
56991;SDS011;42885;49.754;18.636;2023-12-20T00:54:24;7.58;;;5.85;;
56991;SDS011;42885;49.754;18.636;2023-12-20T00:56:55;8.70;;;6.17;;
56991;SDS011;42885;49.754;18.636;2023-12-20T00:59:26;8.08;;;6.35;;
56991;SDS011;42885;49.754;18.636;2023-12-20T01:01:57;9.97;;;6.83;;
56991;SDS011;42885;49.754;18.636;2023-12-20T01:04:28;8.53;;;6.78;;
56991;SDS011;42885;49.754;18.636;2023-12-20T01:06:59;10.07;;;7.23;;
56991;SDS011;42885;49.754;18.636;2023-12-20T01:09:31;10.10;;;7.35;;
56991;SDS011;42885;49.754;18.636;2023-12-20T01:12:02;10.55;;;7.87;;
56991;SDS011;42885;49.754;18.636;2023-12-20T01:14:33;10.58;;;7.87;;
56991;SDS011;42885;49.754;18.636;2023-12-20T01:17:05;10.30;;;7.60;;
56991;SDS011;42885;49.754;18.636;2023-12-20T01:19:36;10.13;;;8.13;;
56991;SDS011;42885;49.754;18.636;2023-12-20T01:22:07;12.35;;;8.33;;
56991;SDS011;42885;49.754;18.636;2023-12-20T01:24:39;10.32;;;7.90;;
56991;SDS011;42885;49.754;18.636;2023-12-20T01:27:10;11.45;;;7.92;;
56991;SDS011;42885;49.754;18.636;2023-12-20T01:29:41;10.78;;;8.08;;
56991;SDS011;42885;49.754;18.636;2023-12-20T01:32:12;10.63;;;8.08;;
56991;SDS011;42885;49.754;18.636;2023-12-20T01:34:43;10.88;;;7.87;;
56991;SDS011;42885;49.754;18.636;2023-12-20T01:37:14;10.78;;;7.92;;
56991;SDS011;42885;49.754;18.636;2023-12-20T01:39:45;10.40;;;8.23;;
56991;SDS011;42885;49.754;18.636;2023-12-20T01:42:16;10.67;;;8.50;;
56991;SDS011;42885;49.754;18.636;2023-12-20T01:44:48;10.23;;;8.30;;
56991;SDS011;42885;49.754;18.636;2023-12-20T01:47:19;11.50;;;8.93;;
56991;SDS011;42885;49.754;18.636;2023-12-20T01:49:51;11.70;;;8.97;;
56991;SDS011;42885;49.754;18.636;2023-12-20T01:52:23;11.78;;;9.40;;
56991;SDS011;42885;49.754;18.636;2023-12-20T01:54:56;12.13;;;8.93;;
56991;SDS011;42885;49.754;18.636;2023-12-20T01:57:30;11.43;;;8.45;;
56991;SDS011;42885;49.754;18.636;2023-12-20T02:00:02;10.38;;;7.75;;
56991;SDS011;42885;49.754;18.636;2023-12-20T02:02:33;11.63;;;8.20;;
56991;SDS011;42885;49.754;18.636;2023-12-20T02:05:08;12.55;;;8.78;;
56991;SDS011;42885;49.754;18.636;2023-12-20T02:07:40;10.98;;;8.23;;
56991;SDS011;42885;49.754;18.636;2023-12-20T02:10:11;11.45;;;8.45;;
56991;SDS011;42885;49.754;18.636;2023-12-20T02:12:43;10.50;;;8.38;;
56991;SDS011;42885;49.754;18.636;2023-12-20T02:15:15;11.22;;;8.08;;
56991;SDS011;42885;49.754;18.636;2023-12-20T02:17:46;12.65;;;8.70;;
56991;SDS011;42885;49.754;18.636;2023-12-20T02:20:18;10.80;;;8.08;;
56991;SDS011;42885;49.754;18.636;2023-12-20T02:22:49;10.90;;;7.63;;
56991;SDS011;42885;49.754;18.636;2023-12-20T02:25:20;12.33;;;8.30;;
56991;SDS011;42885;49.754;18.636;2023-12-20T02:27:51;11.38;;;8.18;;
56991;SDS011;42885;49.754;18.636;2023-12-20T02:30:22;12.98;;;8.88;;
56991;SDS011;42885;49.754;18.636;2023-12-20T02:32:53;11.97;;;9.58;;
56991;SDS011;42885;49.754;18.636;2023-12-20T02:35:25;12.73;;;9.13;;
56991;SDS011;42885;49.754;18.636;2023-12-20T02:37:56;11.45;;;8.85;;
56991;SDS011;42885;49.754;18.636;2023-12-20T02:40:27;11.15;;;8.85;;
56991;SDS011;42885;49.754;18.636;2023-12-20T02:42:59;15.40;;;9.65;;
56991;SDS011;42885;49.754;18.636;2023-12-20T02:45:30;11.75;;;9.05;;
56991;SDS011;42885;49.754;18.636;2023-12-20T02:48:01;12.78;;;8.98;;
56991;SDS011;42885;49.754;18.636;2023-12-20T02:50:32;12.43;;;9.10;;
56991;SDS011;42885;49.754;18.636;2023-12-20T02:53:03;12.78;;;9.50;;
56991;SDS011;42885;49.754;18.636;2023-12-20T02:55:34;12.63;;;9.43;;
56991;SDS011;42885;49.754;18.636;2023-12-20T02:58:05;15.58;;;10.25;;
56991;SDS011;42885;49.754;18.636;2023-12-20T03:00:36;12.82;;;9.30;;
56991;SDS011;42885;49.754;18.636;2023-12-20T03:03:07;13.83;;;8.90;;
56991;SDS011;42885;49.754;18.636;2023-12-20T03:05:39;13.98;;;8.63;;
56991;SDS011;42885;49.754;18.636;2023-12-20T03:08:13;13.13;;;9.45;;
56991;SDS011;42885;49.754;18.636;2023-12-20T03:10:44;12.35;;;9.25;;
56991;SDS011;42885;49.754;18.636;2023-12-20T03:13:15;11.88;;;8.30;;
56991;SDS011;42885;49.754;18.636;2023-12-20T03:15:47;14.07;;;9.60;;
56991;SDS011;42885;49.754;18.636;2023-12-20T03:18:18;12.20;;;9.25;;
56991;SDS011;42885;49.754;18.636;2023-12-20T03:20:50;11.48;;;8.80;;
56991;SDS011;42885;49.754;18.636;2023-12-20T03:23:22;11.18;;;8.28;;
56991;SDS011;42885;49.754;18.636;2023-12-20T03:25:53;10.97;;;8.03;;
56991;SDS011;42885;49.754;18.636;2023-12-20T03:28:24;11.57;;;8.53;;
56991;SDS011;42885;49.754;18.636;2023-12-20T03:30:57;12.00;;;8.48;;
56991;SDS011;42885;49.754;18.636;2023-12-20T03:33:28;13.70;;;8.35;;
56991;SDS011;42885;49.754;18.636;2023-12-20T03:36:00;11.73;;;7.97;;
56991;SDS011;42885;49.754;18.636;2023-12-20T03:38:31;12.95;;;8.55;;
56991;SDS011;42885;49.754;18.636;2023-12-20T03:41:02;12.37;;;8.40;;
56991;SDS011;42885;49.754;18.636;2023-12-20T03:43:34;11.10;;;8.13;;
56991;SDS011;42885;49.754;18.636;2023-12-20T03:46:05;17.10;;;8.90;;
56991;SDS011;42885;49.754;18.636;2023-12-20T03:48:38;13.57;;;8.23;;
56991;SDS011;42885;49.754;18.636;2023-12-20T03:51:09;11.97;;;9.15;;
56991;SDS011;42885;49.754;18.636;2023-12-20T03:53:40;11.90;;;8.40;;
56991;SDS011;42885;49.754;18.636;2023-12-20T03:56:11;11.70;;;8.80;;
56991;SDS011;42885;49.754;18.636;2023-12-20T03:58:42;15.48;;;9.43;;
56991;SDS011;42885;49.754;18.636;2023-12-20T04:01:13;15.05;;;9.18;;
56991;SDS011;42885;49.754;18.636;2023-12-20T04:03:44;12.88;;;9.20;;
56991;SDS011;42885;49.754;18.636;2023-12-20T04:06:18;15.38;;;9.30;;
56991;SDS011;42885;49.754;18.636;2023-12-20T04:08:49;14.25;;;9.25;;
56991;SDS011;42885;49.754;18.636;2023-12-20T04:11:21;14.20;;;9.88;;
56991;SDS011;42885;49.754;18.636;2023-12-20T04:13:52;16.97;;;10.28;;
56991;SDS011;42885;49.754;18.636;2023-12-20T04:16:23;14.03;;;9.78;;
56991;SDS011;42885;49.754;18.636;2023-12-20T04:18:55;17.67;;;10.48;;
56991;SDS011;42885;49.754;18.636;2023-12-20T04:21:26;14.85;;;10.35;;
56991;SDS011;42885;49.754;18.636;2023-12-20T04:23:57;16.85;;;10.88;;
56991;SDS011;42885;49.754;18.636;2023-12-20T04:26:28;17.77;;;11.50;;
56991;SDS011;42885;49.754;18.636;2023-12-20T04:28:59;20.92;;;12.98;;
56991;SDS011;42885;49.754;18.636;2023-12-20T04:31:31;15.93;;;11.75;;
56991;SDS011;42885;49.754;18.636;2023-12-20T04:34:02;20.80;;;11.38;;
56991;SDS011;42885;49.754;18.636;2023-12-20T04:36:33;17.52;;;11.78;;
56991;SDS011;42885;49.754;18.636;2023-12-20T04:39:05;16.17;;;11.03;;
56991;SDS011;42885;49.754;18.636;2023-12-20T04:41:37;14.78;;;10.93;;
56991;SDS011;42885;49.754;18.636;2023-12-20T04:44:09;16.25;;;10.35;;
56991;SDS011;42885;49.754;18.636;2023-12-20T04:46:40;12.65;;;8.85;;
56991;SDS011;42885;49.754;18.636;2023-12-20T04:49:12;12.28;;;8.73;;
56991;SDS011;42885;49.754;18.636;2023-12-20T04:51:43;13.10;;;9.08;;
56991;SDS011;42885;49.754;18.636;2023-12-20T04:54:14;17.50;;;10.28;;
56991;SDS011;42885;49.754;18.636;2023-12-20T04:56:46;13.32;;;10.00;;
56991;SDS011;42885;49.754;18.636;2023-12-20T04:59:17;14.77;;;10.07;;
56991;SDS011;42885;49.754;18.636;2023-12-20T05:01:48;14.63;;;9.70;;
56991;SDS011;42885;49.754;18.636;2023-12-20T05:04:19;19.12;;;11.63;;
56991;SDS011;42885;49.754;18.636;2023-12-20T05:06:50;21.73;;;13.43;;
56991;SDS011;42885;49.754;18.636;2023-12-20T05:09:21;20.23;;;13.93;;
56991;SDS011;42885;49.754;18.636;2023-12-20T05:11:52;21.40;;;14.97;;
56991;SDS011;42885;49.754;18.636;2023-12-20T05:14:24;19.55;;;13.75;;
56991;SDS011;42885;49.754;18.636;2023-12-20T05:16:56;19.53;;;13.93;;
56991;SDS011;42885;49.754;18.636;2023-12-20T05:19:27;21.33;;;14.18;;
56991;SDS011;42885;49.754;18.636;2023-12-20T05:21:59;20.30;;;13.88;;
56991;SDS011;42885;49.754;18.636;2023-12-20T05:24:31;23.42;;;15.25;;
56991;SDS011;42885;49.754;18.636;2023-12-20T05:27:02;20.45;;;14.98;;
56991;SDS011;42885;49.754;18.636;2023-12-20T05:29:33;21.23;;;14.95;;
56991;SDS011;42885;49.754;18.636;2023-12-20T05:32:04;22.10;;;15.32;;
56991;SDS011;42885;49.754;18.636;2023-12-20T05:34:36;27.13;;;17.90;;
56991;SDS011;42885;49.754;18.636;2023-12-20T05:37:07;38.55;;;21.23;;
56991;SDS011;42885;49.754;18.636;2023-12-20T05:39:39;35.28;;;21.02;;
56991;SDS011;42885;49.754;18.636;2023-12-20T05:42:10;27.13;;;18.37;;
56991;SDS011;42885;49.754;18.636;2023-12-20T05:44:41;29.15;;;19.65;;
56991;SDS011;42885;49.754;18.636;2023-12-20T05:47:12;30.43;;;20.55;;
56991;SDS011;42885;49.754;18.636;2023-12-20T05:49:43;112.68;;;67.67;;
56991;SDS011;42885;49.754;18.636;2023-12-20T05:52:15;29.05;;;19.62;;
56991;SDS011;42885;49.754;18.636;2023-12-20T05:54:47;28.00;;;18.42;;
56991;SDS011;42885;49.754;18.636;2023-12-20T05:57:18;30.40;;;19.70;;
56991;SDS011;42885;49.754;18.636;2023-12-20T05:59:49;36.42;;;22.25;;
56991;SDS011;42885;49.754;18.636;2023-12-20T06:02:21;60.95;;;39.45;;
56991;SDS011;42885;49.754;18.636;2023-12-20T06:04:53;33.67;;;22.43;;
56991;SDS011;42885;49.754;18.636;2023-12-20T06:07:24;31.12;;;19.25;;
56991;SDS011;42885;49.754;18.636;2023-12-20T06:09:55;29.02;;;17.60;;
56991;SDS011;42885;49.754;18.636;2023-12-20T06:12:27;20.52;;;13.30;;
56991;SDS011;42885;49.754;18.636;2023-12-20T06:15:00;25.10;;;16.53;;
56991;SDS011;42885;49.754;18.636;2023-12-20T06:17:31;21.95;;;13.72;;
56991;SDS011;42885;49.754;18.636;2023-12-20T06:20:04;17.12;;;12.70;;
56991;SDS011;42885;49.754;18.636;2023-12-20T06:22:37;22.77;;;14.68;;
56991;SDS011;42885;49.754;18.636;2023-12-20T06:25:08;23.92;;;15.15;;
56991;SDS011;42885;49.754;18.636;2023-12-20T06:27:40;18.98;;;14.20;;
56991;SDS011;42885;49.754;18.636;2023-12-20T06:30:11;17.27;;;11.70;;
56991;SDS011;42885;49.754;18.636;2023-12-20T06:32:42;16.95;;;12.43;;
56991;SDS011;42885;49.754;18.636;2023-12-20T06:35:15;16.82;;;11.35;;
56991;SDS011;42885;49.754;18.636;2023-12-20T06:37:46;15.45;;;9.93;;
56991;SDS011;42885;49.754;18.636;2023-12-20T06:40:18;17.57;;;10.05;;
56991;SDS011;42885;49.754;18.636;2023-12-20T06:42:49;12.33;;;8.05;;
56991;SDS011;42885;49.754;18.636;2023-12-20T06:45:21;11.50;;;7.97;;
56991;SDS011;42885;49.754;18.636;2023-12-20T06:47:52;12.55;;;8.58;;
56991;SDS011;42885;49.754;18.636;2023-12-20T06:50:24;11.67;;;8.13;;
56991;SDS011;42885;49.754;18.636;2023-12-20T06:52:55;11.90;;;8.03;;
56991;SDS011;42885;49.754;18.636;2023-12-20T06:55:26;11.97;;;7.50;;
56991;SDS011;42885;49.754;18.636;2023-12-20T06:57:59;10.88;;;8.08;;
56991;SDS011;42885;49.754;18.636;2023-12-20T07:00:31;10.93;;;8.35;;
56991;SDS011;42885;49.754;18.636;2023-12-20T07:03:03;12.68;;;8.60;;
56991;SDS011;42885;49.754;18.636;2023-12-20T07:05:35;11.05;;;8.35;;
56991;SDS011;42885;49.754;18.636;2023-12-20T07:08:08;11.07;;;8.27;;
56991;SDS011;42885;49.754;18.636;2023-12-20T07:10:40;12.50;;;8.10;;
56991;SDS011;42885;49.754;18.636;2023-12-20T07:13:11;13.48;;;8.75;;
56991;SDS011;42885;49.754;18.636;2023-12-20T07:15:43;14.40;;;8.30;;
56991;SDS011;42885;49.754;18.636;2023-12-20T07:18:14;11.60;;;8.20;;
56991;SDS011;42885;49.754;18.636;2023-12-20T07:20:46;11.43;;;7.78;;
56991;SDS011;42885;49.754;18.636;2023-12-20T07:23:17;11.87;;;8.47;;
56991;SDS011;42885;49.754;18.636;2023-12-20T07:25:50;12.23;;;8.73;;
56991;SDS011;42885;49.754;18.636;2023-12-20T07:28:22;11.43;;;8.43;;
56991;SDS011;42885;49.754;18.636;2023-12-20T07:30:54;11.45;;;7.05;;
56991;SDS011;42885;49.754;18.636;2023-12-20T07:33:25;10.58;;;7.78;;
56991;SDS011;42885;49.754;18.636;2023-12-20T07:35:56;13.68;;;7.90;;
56991;SDS011;42885;49.754;18.636;2023-12-20T07:38:30;11.33;;;8.28;;
56991;SDS011;42885;49.754;18.636;2023-12-20T07:41:01;9.83;;;7.90;;
56991;SDS011;42885;49.754;18.636;2023-12-20T07:43:33;11.33;;;8.10;;
56991;SDS011;42885;49.754;18.636;2023-12-20T07:46:07;12.30;;;8.18;;
56991;SDS011;42885;49.754;18.636;2023-12-20T07:48:39;12.68;;;8.73;;
56991;SDS011;42885;49.754;18.636;2023-12-20T07:51:11;12.15;;;8.70;;
56991;SDS011;42885;49.754;18.636;2023-12-20T07:53:42;11.60;;;9.05;;
56991;SDS011;42885;49.754;18.636;2023-12-20T07:56:20;12.45;;;8.08;;
56991;SDS011;42885;49.754;18.636;2023-12-20T07:58:47;10.38;;;7.80;;
56991;SDS011;42885;49.754;18.636;2023-12-20T08:01:19;11.75;;;8.08;;
56991;SDS011;42885;49.754;18.636;2023-12-20T08:03:50;13.30;;;8.33;;
56991;SDS011;42885;49.754;18.636;2023-12-20T08:06:22;11.33;;;8.48;;
56991;SDS011;42885;49.754;18.636;2023-12-20T08:08:54;11.60;;;7.87;;
56991;SDS011;42885;49.754;18.636;2023-12-20T08:11:25;10.20;;;8.15;;
56991;SDS011;42885;49.754;18.636;2023-12-20T08:13:56;11.30;;;8.57;;
56991;SDS011;42885;49.754;18.636;2023-12-20T08:16:27;12.15;;;7.40;;
56991;SDS011;42885;49.754;18.636;2023-12-20T08:18:59;11.10;;;8.15;;
56991;SDS011;42885;49.754;18.636;2023-12-20T08:21:30;14.07;;;8.18;;
56991;SDS011;42885;49.754;18.636;2023-12-20T08:24:02;10.88;;;8.30;;
56991;SDS011;42885;49.754;18.636;2023-12-20T08:26:34;10.40;;;8.23;;
56991;SDS011;42885;49.754;18.636;2023-12-20T08:29:05;10.23;;;7.90;;
56991;SDS011;42885;49.754;18.636;2023-12-20T08:31:36;10.40;;;8.63;;
56991;SDS011;42885;49.754;18.636;2023-12-20T08:34:08;14.50;;;9.18;;
56991;SDS011;42885;49.754;18.636;2023-12-20T08:36:41;11.70;;;8.50;;
56991;SDS011;42885;49.754;18.636;2023-12-20T08:39:13;13.10;;;7.95;;
56991;SDS011;42885;49.754;18.636;2023-12-20T08:41:45;13.10;;;8.88;;
56991;SDS011;42885;49.754;18.636;2023-12-20T08:44:16;11.12;;;8.20;;
56991;SDS011;42885;49.754;18.636;2023-12-20T08:46:48;11.70;;;8.13;;
56991;SDS011;42885;49.754;18.636;2023-12-20T08:49:19;12.75;;;8.93;;
56991;SDS011;42885;49.754;18.636;2023-12-20T08:51:52;12.30;;;8.67;;
56991;SDS011;42885;49.754;18.636;2023-12-20T08:54:22;12.25;;;8.25;;
56991;SDS011;42885;49.754;18.636;2023-12-20T08:56:54;12.43;;;7.95;;
56991;SDS011;42885;49.754;18.636;2023-12-20T08:59:26;10.25;;;7.17;;
56991;SDS011;42885;49.754;18.636;2023-12-20T09:01:57;9.18;;;7.00;;
56991;SDS011;42885;49.754;18.636;2023-12-20T09:04:29;9.73;;;7.22;;
56991;SDS011;42885;49.754;18.636;2023-12-20T09:07:00;9.30;;;6.55;;
56991;SDS011;42885;49.754;18.636;2023-12-20T09:09:31;10.03;;;7.33;;
56991;SDS011;42885;49.754;18.636;2023-12-20T09:14:35;10.72;;;7.53;;
56991;SDS011;42885;49.754;18.636;2023-12-20T09:17:06;9.88;;;7.28;;
56991;SDS011;42885;49.754;18.636;2023-12-20T09:19:38;8.20;;;6.22;;
56991;SDS011;42885;49.754;18.636;2023-12-20T09:22:09;9.65;;;7.22;;
56991;SDS011;42885;49.754;18.636;2023-12-20T09:24:41;10.70;;;7.40;;
56991;SDS011;42885;49.754;18.636;2023-12-20T09:27:13;11.05;;;7.70;;
56991;SDS011;42885;49.754;18.636;2023-12-20T09:29:44;11.50;;;8.03;;
56991;SDS011;42885;49.754;18.636;2023-12-20T09:32:17;12.07;;;7.33;;
56991;SDS011;42885;49.754;18.636;2023-12-20T09:34:50;12.27;;;7.77;;
56991;SDS011;42885;49.754;18.636;2023-12-20T09:37:21;12.95;;;8.55;;
56991;SDS011;42885;49.754;18.636;2023-12-20T09:39:52;11.05;;;7.65;;
56991;SDS011;42885;49.754;18.636;2023-12-20T09:42:25;11.73;;;7.40;;
56991;SDS011;42885;49.754;18.636;2023-12-20T09:45:01;11.65;;;9.25;;
56991;SDS011;42885;49.754;18.636;2023-12-20T09:47:33;12.20;;;9.13;;
56991;SDS011;42885;49.754;18.636;2023-12-20T09:50:06;13.30;;;8.60;;
56991;SDS011;42885;49.754;18.636;2023-12-20T09:52:37;10.48;;;7.78;;
56991;SDS011;42885;49.754;18.636;2023-12-20T09:55:10;13.48;;;8.18;;
56991;SDS011;42885;49.754;18.636;2023-12-20T09:57:41;10.58;;;7.12;;
56991;SDS011;42885;49.754;18.636;2023-12-20T10:00:12;12.47;;;8.60;;
56991;SDS011;42885;49.754;18.636;2023-12-20T10:02:50;11.97;;;8.38;;
56991;SDS011;42885;49.754;18.636;2023-12-20T10:05:28;10.80;;;8.20;;
56991;SDS011;42885;49.754;18.636;2023-12-20T10:08:01;9.68;;;7.33;;
56991;SDS011;42885;49.754;18.636;2023-12-20T10:10:33;10.65;;;6.78;;
56991;SDS011;42885;49.754;18.636;2023-12-20T10:13:07;8.58;;;6.87;;
56991;SDS011;42885;49.754;18.636;2023-12-20T10:15:40;10.90;;;7.50;;
56991;SDS011;42885;49.754;18.636;2023-12-20T10:18:12;8.20;;;6.30;;
56991;SDS011;42885;49.754;18.636;2023-12-20T10:20:44;11.15;;;8.23;;
56991;SDS011;42885;49.754;18.636;2023-12-20T10:23:16;8.13;;;6.60;;
56991;SDS011;42885;49.754;18.636;2023-12-20T10:25:59;12.15;;;8.20;;
56991;SDS011;42885;49.754;18.636;2023-12-20T10:28:28;17.75;;;11.97;;
56991;SDS011;42885;49.754;18.636;2023-12-20T10:31:03;11.45;;;7.42;;
56991;SDS011;42885;49.754;18.636;2023-12-20T10:33:34;9.48;;;6.15;;
56991;SDS011;42885;49.754;18.636;2023-12-20T10:36:06;7.75;;;5.28;;
56991;SDS011;42885;49.754;18.636;2023-12-20T10:38:37;6.67;;;5.50;;
56991;SDS011;42885;49.754;18.636;2023-12-20T10:41:11;6.90;;;5.20;;
56991;SDS011;42885;49.754;18.636;2023-12-20T10:43:46;6.15;;;4.83;;
56991;SDS011;42885;49.754;18.636;2023-12-20T10:46:19;7.58;;;5.67;;
56991;SDS011;42885;49.754;18.636;2023-12-20T10:48:51;7.70;;;5.20;;
56991;SDS011;42885;49.754;18.636;2023-12-20T10:51:24;6.87;;;4.05;;
56991;SDS011;42885;49.754;18.636;2023-12-20T10:53:56;7.28;;;5.25;;
56991;SDS011;42885;49.754;18.636;2023-12-20T10:56:28;5.83;;;4.42;;
56991;SDS011;42885;49.754;18.636;2023-12-20T10:59:04;6.03;;;4.67;;
56991;SDS011;42885;49.754;18.636;2023-12-20T11:01:39;9.40;;;4.85;;
56991;SDS011;42885;49.754;18.636;2023-12-20T11:04:13;6.08;;;4.17;;
56991;SDS011;42885;49.754;18.636;2023-12-20T11:06:47;6.15;;;4.12;;
56991;SDS011;42885;49.754;18.636;2023-12-20T11:09:24;6.53;;;4.03;;
56991;SDS011;42885;49.754;18.636;2023-12-20T11:12:06;6.05;;;3.80;;
56991;SDS011;42885;49.754;18.636;2023-12-20T11:14:42;5.40;;;3.20;;
56991;SDS011;42885;49.754;18.636;2023-12-20T11:17:17;6.15;;;4.30;;
56991;SDS011;42885;49.754;18.636;2023-12-20T11:22:31;5.78;;;4.33;;
56991;SDS011;42885;49.754;18.636;2023-12-20T11:25:04;6.85;;;4.37;;
56991;SDS011;42885;49.754;18.636;2023-12-20T11:27:41;5.75;;;4.17;;
56991;SDS011;42885;49.754;18.636;2023-12-20T11:30:14;8.48;;;4.45;;
56991;SDS011;42885;49.754;18.636;2023-12-20T11:32:46;5.72;;;4.03;;
56991;SDS011;42885;49.754;18.636;2023-12-20T11:35:18;6.33;;;4.28;;
56991;SDS011;42885;49.754;18.636;2023-12-20T11:37:49;5.80;;;4.17;;
56991;SDS011;42885;49.754;18.636;2023-12-20T11:40:22;5.97;;;4.10;;
56991;SDS011;42885;49.754;18.636;2023-12-20T11:42:54;7.58;;;4.05;;
56991;SDS011;42885;49.754;18.636;2023-12-20T11:45:26;4.65;;;3.83;;
56991;SDS011;42885;49.754;18.636;2023-12-20T11:47:58;4.55;;;3.55;;
56991;SDS011;42885;49.754;18.636;2023-12-20T11:50:29;7.17;;;4.37;;
56991;SDS011;42885;49.754;18.636;2023-12-20T11:53:00;6.50;;;4.90;;
56991;SDS011;42885;49.754;18.636;2023-12-20T11:55:32;5.50;;;3.98;;
56991;SDS011;42885;49.754;18.636;2023-12-20T11:58:05;6.60;;;3.62;;
56991;SDS011;42885;49.754;18.636;2023-12-20T12:00:38;4.67;;;3.47;;
56991;SDS011;42885;49.754;18.636;2023-12-20T12:03:14;6.17;;;4.20;;
56991;SDS011;42885;49.754;18.636;2023-12-20T12:05:46;5.85;;;4.10;;
56991;SDS011;42885;49.754;18.636;2023-12-20T12:08:18;7.53;;;5.00;;
56991;SDS011;42885;49.754;18.636;2023-12-20T12:10:49;5.12;;;3.87;;
56991;SDS011;42885;49.754;18.636;2023-12-20T12:13:21;6.15;;;4.22;;
56991;SDS011;42885;49.754;18.636;2023-12-20T12:15:52;5.90;;;4.60;;
56991;SDS011;42885;49.754;18.636;2023-12-20T12:18:24;6.85;;;5.60;;
56991;SDS011;42885;49.754;18.636;2023-12-20T12:21:01;6.53;;;4.35;;
56991;SDS011;42885;49.754;18.636;2023-12-20T12:23:32;5.80;;;4.40;;
56991;SDS011;42885;49.754;18.636;2023-12-20T12:26:04;6.87;;;5.40;;
56991;SDS011;42885;49.754;18.636;2023-12-20T12:28:37;6.15;;;5.17;;
56991;SDS011;42885;49.754;18.636;2023-12-20T12:31:14;8.25;;;5.92;;
56991;SDS011;42885;49.754;18.636;2023-12-20T12:33:46;6.28;;;4.58;;
56991;SDS011;42885;49.754;18.636;2023-12-20T12:36:19;7.17;;;5.37;;
56991;SDS011;42885;49.754;18.636;2023-12-20T12:38:50;6.42;;;5.15;;
56991;SDS011;42885;49.754;18.636;2023-12-20T12:41:21;4.70;;;3.85;;
56991;SDS011;42885;49.754;18.636;2023-12-20T12:43:53;5.17;;;4.17;;
56991;SDS011;42885;49.754;18.636;2023-12-20T12:46:24;5.92;;;4.45;;
56991;SDS011;42885;49.754;18.636;2023-12-20T12:48:55;6.60;;;4.85;;
56991;SDS011;42885;49.754;18.636;2023-12-20T12:51:26;11.38;;;5.60;;
56991;SDS011;42885;49.754;18.636;2023-12-20T12:53:57;6.97;;;5.50;;
56991;SDS011;42885;49.754;18.636;2023-12-20T12:56:30;7.47;;;6.27;;
56991;SDS011;42885;49.754;18.636;2023-12-20T12:59:01;7.63;;;6.07;;
56991;SDS011;42885;49.754;18.636;2023-12-20T13:01:32;7.83;;;6.40;;
56991;SDS011;42885;49.754;18.636;2023-12-20T13:04:04;6.35;;;5.53;;
56991;SDS011;42885;49.754;18.636;2023-12-20T13:06:37;7.37;;;5.80;;
56991;SDS011;42885;49.754;18.636;2023-12-20T13:09:10;7.63;;;6.60;;
56991;SDS011;42885;49.754;18.636;2023-12-20T13:11:41;9.55;;;6.95;;
56991;SDS011;42885;49.754;18.636;2023-12-20T13:14:12;11.90;;;7.50;;
56991;SDS011;42885;49.754;18.636;2023-12-20T13:16:45;10.40;;;6.37;;
56991;SDS011;42885;49.754;18.636;2023-12-20T13:19:16;12.40;;;6.55;;
56991;SDS011;42885;49.754;18.636;2023-12-20T13:21:48;11.18;;;6.85;;
56991;SDS011;42885;49.754;18.636;2023-12-20T13:24:19;9.50;;;6.07;;
56991;SDS011;42885;49.754;18.636;2023-12-20T13:26:50;9.68;;;7.42;;
56991;SDS011;42885;49.754;18.636;2023-12-20T13:29:21;9.03;;;6.97;;
56991;SDS011;42885;49.754;18.636;2023-12-20T13:31:53;8.60;;;7.23;;
56991;SDS011;42885;49.754;18.636;2023-12-20T13:34:24;9.03;;;7.67;;
56991;SDS011;42885;49.754;18.636;2023-12-20T13:36:56;7.37;;;6.10;;
56991;SDS011;42885;49.754;18.636;2023-12-20T13:39:27;9.65;;;7.00;;
56991;SDS011;42885;49.754;18.636;2023-12-20T13:42:00;10.43;;;6.70;;
56991;SDS011;42885;49.754;18.636;2023-12-20T13:44:31;9.68;;;6.33;;
56991;SDS011;42885;49.754;18.636;2023-12-20T13:47:03;8.77;;;6.97;;
56991;SDS011;42885;49.754;18.636;2023-12-20T13:49:34;11.55;;;7.47;;
56991;SDS011;42885;49.754;18.636;2023-12-20T13:52:05;7.75;;;5.97;;
56991;SDS011;42885;49.754;18.636;2023-12-20T13:54:37;6.85;;;5.22;;
56991;SDS011;42885;49.754;18.636;2023-12-20T13:57:08;8.48;;;6.20;;
56991;SDS011;42885;49.754;18.636;2023-12-20T13:59:39;7.78;;;5.72;;
56991;SDS011;42885;49.754;18.636;2023-12-20T14:02:11;6.80;;;5.22;;
56991;SDS011;42885;49.754;18.636;2023-12-20T14:04:43;6.48;;;4.64;;
56991;SDS011;42885;49.754;18.636;2023-12-20T14:07:14;6.42;;;5.15;;
56991;SDS011;42885;49.754;18.636;2023-12-20T14:09:45;8.45;;;4.50;;
56991;SDS011;42885;49.754;18.636;2023-12-20T14:12:17;6.62;;;4.55;;
56991;SDS011;42885;49.754;18.636;2023-12-20T14:14:49;5.37;;;4.33;;
56991;SDS011;42885;49.754;18.636;2023-12-20T14:17:20;5.87;;;4.85;;
56991;SDS011;42885;49.754;18.636;2023-12-20T14:19:52;5.23;;;4.50;;
56991;SDS011;42885;49.754;18.636;2023-12-20T14:22:23;4.92;;;4.42;;
56991;SDS011;42885;49.754;18.636;2023-12-20T14:24:54;6.53;;;4.35;;
56991;SDS011;42885;49.754;18.636;2023-12-20T14:27:27;4.97;;;4.20;;
56991;SDS011;42885;49.754;18.636;2023-12-20T14:29:58;5.65;;;4.10;;
56991;SDS011;42885;49.754;18.636;2023-12-20T14:32:31;4.60;;;4.20;;
56991;SDS011;42885;49.754;18.636;2023-12-20T14:35:04;5.15;;;4.55;;
56991;SDS011;42885;49.754;18.636;2023-12-20T14:37:37;5.10;;;3.90;;
56991;SDS011;42885;49.754;18.636;2023-12-20T14:40:09;4.92;;;4.10;;
56991;SDS011;42885;49.754;18.636;2023-12-20T14:42:43;5.08;;;3.15;;
56991;SDS011;42885;49.754;18.636;2023-12-20T14:45:14;3.65;;;2.90;;
56991;SDS011;42885;49.754;18.636;2023-12-20T14:47:46;6.20;;;3.70;;
56991;SDS011;42885;49.754;18.636;2023-12-20T14:50:18;7.05;;;4.20;;
56991;SDS011;42885;49.754;18.636;2023-12-20T14:52:49;5.70;;;4.03;;
56991;SDS011;42885;49.754;18.636;2023-12-20T14:55:21;6.53;;;3.92;;